Time;durP1;ratioP1;P1;durP2;ratioP2;P2;SDS_P1;SDS_P2;PMS_P1;PMS_P2;Temp;Humidity;BMP_temperature;BMP_pressure;BME280_temperature;BME280_humidity;BME280_pressure;Samples;Min_cycle;Max_cycle;Signal;HPM_P1;HPM_P2
2022/08/06 00:02:37;;;;;;;6.20;3.15;;;;;;;21.07;62.59;96353.41;10359271;28;96986;-64
2022/08/06 00:07:40;;;;;;;5.28;3.13;;;;;;;21.02;62.48;96353.22;10367921;28;99283;-63
2022/08/06 00:12:50;;;;;;;4.07;3.40;;;;;;;21.10;61.92;96353.78;10363909;28;98625;-63
2022/08/06 00:17:54;;;;;;;3.97;3.13;;;;;;;21.24;61.22;96354.53;10366441;28;98646;-63
2022/08/06 00:22:57;;;;;;;;;;;;;;;21.26;60.41;96357.00;10368622;28;96877;-63
2022/08/06 00:28:00;;;;;;;5.35;3.05;;;;;;;21.25;60.84;96350.03;10366981;28;98842;-64
2022/08/06 00:33:04;;;;;;;4.35;3.05;;;;;;;21.24;61.40;96343.09;10361867;28;97708;-63
2022/08/06 00:38:07;;;;;;;5.85;3.35;;;;;;;21.18;61.49;96343.94;10370518;28;98744;-63
2022/08/06 00:43:13;;;;;;;4.63;3.55;;;;;;;21.12;61.94;96359.69;10366846;28;98491;-63
2022/08/06 00:48:18;;;;;;;;;;;;;;;21.13;61.52;96345.38;10368871;28;96831;-66
2022/08/06 00:53:41;;;;;;;5.22;3.72;;;;;;;20.99;61.89;96350.97;10366112;28;96826;-64
2022/08/06 00:58:45;;;;;;;5.95;3.40;;;;;;;20.88;62.85;96349.78;10363933;28;96884;-63
2022/08/06 01:03:50;;;;;;;4.82;3.78;;;;;;;20.81;63.08;96359.59;10371299;28;98223;-63
2022/08/06 01:08:54;;;;;;;4.50;3.60;;;;;;;20.82;63.02;96355.94;10377357;28;96994;-63
2022/08/06 01:13:57;;;;;;;4.68;3.40;;;;;;;20.77;63.22;96350.44;10364368;28;97660;-64
2022/08/06 01:19:31;;;;;;;7.30;3.75;;;;;;;20.84;63.22;96356.53;10372076;28;98686;-63
2022/08/06 01:25:14;;;;;;;6.57;3.70;;;;;;;20.86;62.95;96347.34;10371419;28;96744;-63
2022/08/06 01:30:25;;;;;;;4.93;3.88;;;;;;;20.81;63.17;96348.97;10370512;28;97729;-65
2022/08/06 01:35:37;;;;;;;6.03;3.78;;;;;;;20.78;63.30;96349.41;10366498;28;97074;-66
2022/08/06 01:41:00;;;;;;;4.65;3.70;;;;;;;20.77;63.88;96345.94;10364578;28;97331;-65
2022/08/06 01:46:07;;;;;;;4.90;3.50;;;;;;;20.68;63.96;96334.69;10365297;28;97513;-67
2022/08/06 01:51:13;;;;;;;4.07;3.60;;;;;;;20.67;63.52;96349.00;10364078;28;97684;-64
2022/08/06 01:56:38;;;;;;;4.85;3.72;;;;;;;20.62;64.28;96348.00;10364439;28;98913;-63
2022/08/06 02:02:04;;;;;;;5.50;3.88;;;;;;;20.45;64.17;96352.94;10360589;28;99423;-67
2022/08/06 02:07:10;;;;;;;4.55;3.88;;;;;;;20.34;64.29;96349.91;10359116;28;98079;-65
2022/08/06 02:12:36;;;;;;;6.00;3.90;;;;;;;20.27;64.96;96343.78;10359486;28;97149;-64
2022/08/06 02:17:48;;;;;;;5.28;3.80;;;;;;;20.31;64.65;96357.44;10364214;28;99341;-64
2022/08/06 02:23:13;;;;;;;5.45;3.58;;;;;;;20.24;64.77;96354.00;10362897;28;98460;-64
2022/08/06 02:28:20;;;;;;;5.10;3.88;;;;;;;20.03;65.45;96347.88;10370876;28;96826;-64
2022/08/06 02:33:29;;;;;;;4.53;3.85;;;;;;;19.72;66.07;96351.09;10375108;28;96727;-63
2022/08/06 02:38:57;;;;;;;5.28;4.03;;;;;;;19.77;67.15;96360.06;10364757;28;98221;-63
2022/08/06 02:44:04;;;;;;;5.57;3.88;;;;;;;19.94;65.65;96349.09;10366412;28;98364;-64
2022/08/06 02:49:17;;;;;;;5.85;3.80;;;;;;;19.93;65.49;96345.63;10365622;28;97827;-67
2022/08/06 02:54:37;;;;;;;6.15;4.15;;;;;;;20.05;66.41;96359.09;10363689;28;98799;-63
2022/08/06 02:59:53;;;;;;;4.68;3.67;;;;;;;20.08;66.00;96361.34;10368144;28;99412;-63
2022/08/06 03:05:01;;;;;;;5.85;4.30;;;;;;;20.17;65.45;96369.91;10363352;28;98536;-67
2022/08/06 03:10:05;;;;;;;5.50;3.97;;;;;;;20.18;65.63;96364.41;10362993;28;99139;-65
2022/08/06 03:15:16;;;;;;;4.80;3.92;;;;;;;20.11;65.54;96366.25;10362675;28;100861;-63
2022/08/06 03:20:42;;;;;;;5.00;3.90;;;;;;;20.02;65.71;96364.00;10365119;28;99204;-66
2022/08/06 03:25:46;;;;;;;4.90;3.95;;;;;;;20.02;66.35;96366.66;10360856;28;98539;-66
2022/08/06 03:30:51;;;;;;;5.97;4.20;;;;;;;20.05;66.12;96371.56;10365095;28;98728;-64
2022/08/06 03:36:01;;;;;;;6.05;4.18;;;;;;;20.06;66.52;96373.16;10363119;28;98541;-63
2022/08/06 03:41:07;;;;;;;4.60;3.50;;;;;;;19.90;65.96;96369.09;10364626;28;97724;-65
2022/08/06 03:46:11;;;;;;;6.78;3.88;;;;;;;19.99;66.55;96378.47;10363439;28;96757;-63
2022/08/06 03:51:20;;;;;;;4.10;3.70;;;;;;;19.91;67.12;96373.38;10363008;28;97984;-64
2022/08/06 03:56:45;;;;;;;6.13;4.63;;;;;;;19.77;67.57;96359.28;10359673;28;98921;-62
2022/08/06 04:01:53;;;;;;;6.88;3.97;;;;;;;19.58;67.73;96355.56;10357414;28;98496;-63
2022/08/06 04:07:02;;;;;;;6.80;4.63;;;;;;;19.56;68.15;96369.03;10362977;28;96817;-63
2022/08/06 04:12:10;;;;;;;7.38;4.00;;;;;;;19.46;68.58;96370.44;10363526;28;98429;-63
2022/08/06 04:17:33;;;;;;;6.75;4.30;;;;;;;19.39;68.81;96365.13;10361972;28;98910;-63
2022/08/06 04:22:43;;;;;;;5.65;3.97;;;;;;;19.49;68.83;96370.84;10360065;28;99315;-65
2022/08/06 04:28:08;;;;;;;7.68;4.72;;;;;;;19.48;69.15;96371.03;10359244;28;97793;-65
2022/08/06 04:33:14;;;;;;;5.70;4.30;;;;;;;19.41;69.24;96385.06;10357075;28;96933;-63
2022/08/06 04:38:24;;;;;;;5.55;4.40;;;;;;;19.49;69.59;96376.16;10360049;28;97332;-64
2022/08/06 04:43:33;;;;;;;5.65;4.00;;;;;;;19.54;69.60;96381.66;10360706;28;99274;-63
2022/08/06 04:48:54;;;;;;;7.65;4.30;;;;;;;19.50;69.01;96390.19;10360162;28;98855;-62
2022/08/06 04:54:06;;;;;;;5.50;4.38;;;;;;;19.53;68.64;96385.31;10359853;28;97859;-63
2022/08/06 04:59:14;;;;;;;5.93;4.07;;;;;;;19.52;68.59;96390.81;10364702;28;96946;-63
2022/08/06 05:04:17;;;;;;;7.15;3.90;;;;;;;19.54;68.06;96394.91;10358738;28;97015;-64
2022/08/06 05:09:27;;;;;;;4.97;3.75;;;;;;;19.63;67.57;96406.94;10357925;28;98438;-64
2022/08/06 05:14:50;;;;;;;5.82;3.97;;;;;;;19.67;67.72;96406.56;10362132;28;99006;-64
2022/08/06 05:19:59;;;;;;;6.55;3.50;;;;;;;19.66;68.02;96399.59;10358924;28;98956;-63
2022/08/06 05:25:06;;;;;;;5.55;3.90;;;;;;;19.72;67.76;96420.03;10359100;28;98057;-63
2022/08/06 05:30:21;;;;;;;6.35;3.85;;;;;;;19.72;66.94;96412.06;10354918;28;98613;-66
2022/08/06 05:35:26;;;;;;;5.90;3.60;;;;;;;19.89;67.23;96413.34;10362540;28;98675;-63
2022/08/06 05:40:44;;;;;;;5.28;3.83;;;;;;;19.94;67.80;96408.25;10358683;28;98871;-62
2022/08/06 05:46:04;;;;;;;4.88;3.50;;;;;;;20.07;67.30;96417.25;10356598;28;96914;-68
2022/08/06 05:51:14;;;;;;;6.10;3.60;;;;;;;20.13;67.59;96422.56;10363621;28;98788;-62
2022/08/06 05:56:25;;;;;;;5.78;3.50;;;;;;;20.25;67.18;96417.47;10364212;28;98551;-64
2022/08/06 06:01:41;;;;;;;4.35;3.40;;;;;;;20.41;66.56;96420.69;10371574;28;96966;-63
2022/08/06 06:06:46;;;;;;;3.60;3.28;;;;;;;20.57;66.08;96428.25;10368737;28;96911;-63
2022/08/06 06:11:51;;;;;;;4.53;3.42;;;;;;;20.78;65.84;96427.22;10366139;28;97702;-63
2022/08/06 06:17:20;;;;;;;3.38;2.72;;;;;;;20.90;65.71;96416.78;10363155;28;98737;-63
2022/08/06 06:22:26;;;;;;;4.95;3.20;;;;;;;20.85;65.78;96424.56;10369666;28;99022;-63
2022/08/06 06:27:39;;;;;;;4.63;3.47;;;;;;;20.83;65.95;96421.28;10360481;28;98791;-63
2022/08/06 06:32:55;;;;;;;4.25;3.70;;;;;;;20.75;67.41;96423.16;10374658;28;97182;-65
2022/08/06 06:38:14;;;;;;;5.35;3.28;;;;;;;20.79;66.86;96420.06;10362286;28;98782;-65
2022/08/06 06:43:23;;;;;;;5.25;3.53;;;;;;;20.77;66.72;96391.06;10363871;28;97828;-64
2022/08/06 06:48:45;;;;;;;3.90;3.58;;;;;;;20.98;66.96;96429.84;10365981;28;97105;-63
2022/08/06 06:53:51;;;;;;;4.85;3.40;;;;;;;21.06;66.37;96423.47;10366212;28;99004;-63
2022/08/06 06:59:16;;;;;;;4.07;3.38;;;;;;;21.15;66.46;96416.09;10368367;28;96922;-63
2022/08/06 07:04:22;;;;;;;3.80;3.22;;;;;;;21.28;66.18;96429.31;10365246;28;96801;-70
2022/08/06 07:09:34;;;;;;;4.30;3.35;;;;;;;21.23;66.08;96416.66;10362561;28;97204;-62
2022/08/06 07:14:48;;;;;;;5.20;3.50;;;;;;;21.36;66.18;96420.28;10361279;28;98349;-63
2022/08/06 07:20:03;;;;;;;4.88;3.55;;;;;;;21.47;65.99;96417.78;10361671;28;98460;-65
2022/08/06 07:25:11;;;;;;;4.22;3.60;;;;;;;21.56;66.15;96425.53;10359406;28;98845;-64
2022/08/06 07:30:22;;;;;;;4.70;3.53;;;;;;;21.84;65.13;96419.84;10359422;28;98502;-64
2022/08/06 07:35:27;;;;;;;4.75;3.65;;;;;;;22.07;64.58;96421.94;10371236;28;98352;-63
2022/08/06 07:40:33;;;;;;;3.58;3.25;;;;;;;22.10;64.69;96423.38;10364337;28;96963;-66
2022/08/06 07:45:38;;;;;;;6.10;3.60;;;;;;;22.19;64.45;96430.84;10358303;28;98382;-65
2022/08/06 07:50:59;;;;;;;5.70;3.88;;;;;;;22.42;63.88;96421.47;10359578;28;97086;-69
2022/08/06 07:56:04;;;;;;;3.72;3.25;;;;;;;22.66;63.04;96424.34;10369628;28;97971;-64
2022/08/06 08:01:13;;;;;;;6.32;4.97;;;;;;;22.84;61.98;96432.38;10365199;28;97604;-65
2022/08/06 08:06:25;;;;;;;3.38;2.83;;;;;;;23.10;60.53;96431.28;10358003;28;97152;-66
2022/08/06 08:11:29;;;;;;;3.45;2.90;;;;;;;23.25;60.35;96422.91;10356767;28;99942;-63
2022/08/06 08:16:53;;;;;;;3.80;3.00;;;;;;;23.42;59.51;96425.81;10364564;28;97549;-64
2022/08/06 08:21:57;;;;;;;4.25;2.95;;;;;;;23.66;58.73;96429.38;10359059;28;98445;-63
2022/08/06 08:27:00;;;;;;;3.30;3.00;;;;;;;23.92;57.90;96424.72;10371113;28;97043;-63
2022/08/06 08:32:20;;;;;;;4.22;2.65;;;;;;;23.94;57.84;96426.09;10364274;28;96933;-63
2022/08/06 08:37:25;;;;;;;3.65;3.30;;;;;;;24.11;57.18;96428.97;10370993;28;96813;-65
2022/08/06 08:42:40;;;;;;;5.22;2.92;;;;;;;24.20;56.69;96431.31;10367870;28;96820;-63
2022/08/06 08:47:47;;;;;;;3.45;2.80;;;;;;;24.29;56.23;96427.25;10368252;28;98175;-63
2022/08/06 08:53:03;;;;;;;2.97;2.70;;;;;;;24.41;55.92;96428.09;10369241;28;98088;-64
2022/08/06 08:58:07;;;;;;;3.40;2.97;;;;;;;24.55;55.97;96433.22;10369294;28;96882;-63
2022/08/06 09:03:34;;;;;;;4.32;3.05;;;;;;;24.62;55.02;96429.38;10366314;28;98012;-63
2022/08/06 09:08:43;;;;;;;4.22;3.03;;;;;;;24.62;55.07;96441.91;10366897;28;97720;-63
2022/08/06 09:14:07;;;;;;;3.83;2.80;;;;;;;24.96;54.37;96431.50;10369649;28;96720;-64
2022/08/06 09:19:13;;;;;;;3.70;3.13;;;;;;;25.27;53.78;96448.16;10369319;28;97984;-64
2022/08/06 09:24:16;;;;;;;4.72;3.28;;;;;;;25.39;53.75;96443.59;10372580;28;98041;-63
2022/08/06 09:29:22;;;;;;;3.90;3.50;;;;;;;25.48;52.90;96444.88;10376518;28;98192;-64
2022/08/06 09:34:42;;;;;;;3.80;3.10;;;;;;;25.73;52.51;96444.56;10377532;28;96740;-63
2022/08/06 09:39:52;;;;;;;4.78;3.53;;;;;;;25.92;51.47;96439.81;10371277;28;96862;-64
2022/08/06 09:45:09;;;;;;;4.50;3.15;;;;;;;26.00;51.41;96450.16;10373929;28;96914;-65
2022/08/06 09:50:36;;;;;;;3.55;3.00;;;;;;;26.13;51.18;96429.47;10375772;28;98396;-68
2022/08/06 09:55:40;;;;;;;3.60;2.95;;;;;;;26.29;50.84;96442.13;10370445;28;97184;-65
2022/08/06 10:00:43;;;;;;;4.65;3.80;;;;;;;26.44;50.25;96441.53;10377384;28;96771;-63
2022/08/06 10:06:06;;;;;;;4.55;3.47;;;;;;;26.33;50.11;96437.88;10383138;28;96791;-64
2022/08/06 10:11:12;;;;;;;4.63;3.55;;;;;;;26.26;50.19;96437.25;10383166;28;96801;-63
2022/08/06 10:16:19;;;;;;;4.82;3.70;;;;;;;26.26;50.24;96421.16;10376972;28;96798;-63
2022/08/06 10:21:26;;;;;;;3.53;3.22;;;;;;;26.58;49.49;96422.47;10376261;28;96762;-63
2022/08/06 10:26:44;;;;;;;4.00;3.13;;;;;;;26.80;48.67;96417.16;10374101;28;98886;-64
2022/08/06 10:31:49;;;;;;;5.43;3.63;;;;;;;27.02;48.34;96426.06;10362609;28;96895;-65
2022/08/06 10:36:59;;;;;;;3.40;3.10;;;;;;;27.21;47.68;96412.34;10375290;28;96739;-64
2022/08/06 10:42:04;;;;;;;3.92;3.50;;;;;;;27.28;47.30;96411.13;10364283;28;96987;-64
2022/08/06 10:47:20;;;;;;;3.80;3.40;;;;;;;27.33;47.09;96414.91;10365737;28;96741;-64
2022/08/06 10:52:46;;;;;;;4.30;3.55;;;;;;;27.46;46.80;96403.81;10373263;28;97336;-64
2022/08/06 10:57:50;;;;;;;4.47;3.30;;;;;;;27.73;46.15;96382.34;10372621;28;98262;-65
2022/08/06 11:03:07;;;;;;;4.38;3.88;;;;;;;27.61;46.01;96395.09;10371108;28;96749;-64
2022/08/06 11:08:37;;;;;;;3.67;3.30;;;;;;;27.59;46.17;96391.84;10371198;28;97692;-63
2022/08/06 11:14:00;;;;;;;3.70;3.20;;;;;;;27.68;46.05;96387.69;10374192;28;97984;-64
2022/08/06 11:19:07;;;;;;;4.32;3.92;;;;;;;27.49;46.28;96382.66;10374762;28;97153;-63
2022/08/06 11:24:15;;;;;;;3.22;2.92;;;;;;;27.67;45.70;96383.38;10374237;28;97892;-63
2022/08/06 11:29:18;;;;;;;3.75;3.45;;;;;;;27.53;45.39;96376.78;10366951;28;97081;-63
2022/08/06 11:34:21;;;;;;;3.47;3.17;;;;;;;27.28;45.93;96381.59;10374473;28;96937;-64
2022/08/06 11:40:08;;;;;;;3.60;3.30;;;;;;;27.11;45.69;96387.03;10372415;28;97243;-63
2022/08/06 11:45:11;;;;;;;3.60;3.30;;;;;;;27.25;45.19;96375.94;10373664;28;96895;-63
2022/08/06 11:50:34;;;;;;;4.38;3.50;;;;;;;27.33;45.25;96378.16;10365753;28;96757;-63
2022/08/06 11:56:04;;;;;;;4.88;3.08;;;;;;;27.47;45.17;96371.34;10374011;28;96711;-65
2022/08/06 12:01:06;;;;;;;3.38;3.08;;;;;;;27.60;44.85;96380.06;10372146;28;96837;-64
2022/08/06 12:06:30;;;;;;;5.40;3.90;;;;;;;27.67;44.59;96373.47;10372805;28;98071;-63
2022/08/06 12:11:35;;;;;;;4.93;3.67;;;;;;;27.90;44.00;96368.84;10373130;28;96793;-63
2022/08/06 12:16:40;;;;;;;3.42;2.80;;;;;;;27.96;43.18;96369.69;10369521;28;98855;-63
2022/08/06 12:21:56;;;;;;;3.95;3.00;;;;;;;28.10;42.98;96365.53;10365731;28;97064;-63
2022/08/06 12:27:00;;;;;;;;;;;;;;;28.09;43.41;96368.47;10371251;28;97586;-63
2022/08/06 12:32:22;;;;;;;3.90;3.08;;;;;;;28.31;42.92;96371.06;10365590;28;98744;-63
2022/08/06 12:37:37;;;;;;;3.90;2.83;;;;;;;28.52;42.54;96361.28;10372221;28;97065;-66
2022/08/06 12:42:52;;;;;;;3.55;2.95;;;;;;;28.53;42.43;96355.66;10366883;28;96808;-63
2022/08/06 12:48:00;;;;;;;3.50;3.20;;;;;;;28.54;41.79;96351.88;10365724;28;98972;-65
2022/08/06 12:53:08;;;;;;;4.85;4.38;;;;;;;28.56;41.69;96349.75;10368408;28;98978;-66
2022/08/06 12:58:16;;;;;;;2.35;2.15;;;;;;;28.53;41.82;96352.13;10369869;28;99399;-65
2022/08/06 13:03:42;;;;;;;3.30;2.63;;;;;;;28.70;40.84;96335.84;10377250;28;98667;-65
2022/08/06 13:08:53;;;;;;;3.33;2.40;;;;;;;28.92;40.59;96323.06;10371034;28;98672;-63
2022/08/06 13:13:58;;;;;;;3.65;2.88;;;;;;;28.74;40.63;96326.19;10378466;28;97104;-63
2022/08/06 13:19:20;;;;;;;3.05;2.75;;;;;;;28.69;40.37;96320.78;10366803;28;97013;-63
2022/08/06 13:24:34;;;;;;;3.42;2.90;;;;;;;28.54;41.04;96322.31;10377941;28;97226;-65
2022/08/06 13:29:39;;;;;;;2.72;2.40;;;;;;;28.65;40.51;96312.44;10377026;28;96792;-63
2022/08/06 13:35:04;;;;;;;3.17;2.25;;;;;;;28.93;39.77;96303.19;10364558;28;99467;-63
2022/08/06 13:40:09;;;;;;;2.78;2.50;;;;;;;28.91;39.92;96310.69;10360627;28;97451;-63
2022/08/06 13:45:21;;;;;;;3.40;2.17;;;;;;;28.93;39.28;96292.44;10373011;28;97847;-66
2022/08/06 13:50:46;;;;;;;2.70;2.35;;;;;;;29.41;39.07;96302.25;10370425;28;98475;-63
2022/08/06 13:55:49;;;;;;;2.90;2.60;;;;;;;29.31;39.46;96298.44;10369396;28;98564;-63
2022/08/06 14:01:06;;;;;;;2.53;2.30;;;;;;;29.32;39.06;96286.59;10369677;28;99022;-67
2022/08/06 14:06:09;;;;;;;4.90;2.47;;;;;;;29.42;39.02;96293.06;10370741;28;97452;-63
2022/08/06 14:11:13;;;;;;;2.88;2.47;;;;;;;29.48;39.15;96281.25;10374113;28;97500;-64
2022/08/06 14:16:18;;;;;;;2.47;2.28;;;;;;;29.96;38.25;96273.75;10365377;28;96864;-65
2022/08/06 14:21:22;;;;;;;2.60;2.40;;;;;;;29.91;38.29;96279.16;10369195;28;98720;-64
2022/08/06 14:26:26;;;;;;;2.75;2.28;;;;;;;30.57;37.60;96274.75;10365822;28;96947;-66
2022/08/06 14:31:31;;;;;;;3.88;2.10;;;;;;;31.13;36.39;96271.81;10365582;28;98091;-63
2022/08/06 14:36:54;;;;;;;2.42;2.10;;;;;;;32.07;34.90;96267.38;10368570;28;97653;-65
2022/08/06 14:47:20;;;;;;;2.72;2.20;;;;;;;33.47;32.87;96260.84;10356686;28;98829;-64
2022/08/06 14:52:43;;;;;;;7.65;1.90;;;;;;;33.45;32.55;96263.06;10364130;28;98481;-68
2022/08/06 14:57:46;;;;;;;2.65;1.80;;;;;;;33.83;31.98;96252.19;10363845;28;97822;-63
2022/08/06 15:03:10;;;;;;;2.28;1.95;;;;;;;33.89;31.72;96244.75;10370818;27;96904;-63
2022/08/06 15:08:15;;;;;;;2.13;2.00;;;;;;;34.07;31.41;96234.94;10371900;28;97572;-68
2022/08/06 15:13:18;;;;;;;2.15;1.95;;;;;;;34.19;31.46;96246.16;10371701;28;97662;-65
2022/08/06 15:18:23;;;;;;;2.20;2.00;;;;;;;34.17;30.96;96240.22;10369848;28;98347;-65
2022/08/06 15:23:46;;;;;;;2.40;1.80;;;;;;;34.28;31.07;96240.03;10371846;28;96874;-65
2022/08/06 15:28:56;;;;;;;3.80;2.20;;;;;;;34.17;31.03;96244.84;10371223;28;99321;-67
2022/08/06 15:34:02;;;;;;;2.45;2.15;;;;;;;34.10;31.02;96247.13;10370339;28;96858;-65
2022/08/06 15:39:08;;;;;;;2.40;1.98;;;;;;;34.51;30.71;96244.47;10368261;28;98090;-67
2022/08/06 15:44:11;;;;;;;3.45;1.92;;;;;;;34.84;30.14;96236.22;10359865;28;97904;-69
2022/08/06 15:49:16;;;;;;;2.15;1.90;;;;;;;34.67;30.70;96236.84;10357160;28;98570;-65
2022/08/06 15:54:27;;;;;;;2.80;1.80;;;;;;;35.15;29.91;96235.56;10367472;28;97121;-66
2022/08/06 15:59:30;;;;;;;1.98;1.85;;;;;;;35.37;29.22;96236.72;10368500;28;98377;-66
2022/08/06 16:04:54;;;;;;;2.60;1.95;;;;;;;35.15;30.10;96236.38;10367350;28;99039;-67
2022/08/06 16:09:57;;;;;;;2.90;1.90;;;;;;;35.06;29.91;96240.09;10366695;28;98753;-66
2022/08/06 16:15:05;;;;;;;2.42;1.90;;;;;;;34.24;31.00;96233.63;10361763;28;97137;-67
2022/08/06 16:20:14;;;;;;;2.47;1.90;;;;;;;33.05;32.37;96248.22;10363652;28;99118;-66
2022/08/06 16:25:25;;;;;;;3.90;2.15;;;;;;;33.52;31.84;96235.59;10360280;28;97537;-67
2022/08/06 16:30:48;;;;;;;2.40;1.90;;;;;;;32.97;32.45;96230.69;10366977;28;98069;-66
2022/08/06 16:36:12;;;;;;;1.88;1.67;;;;;;;33.36;31.98;96242.34;10366023;28;96903;-65
2022/08/06 16:41:15;;;;;;;2.63;2.10;;;;;;;33.66;31.46;96235.69;10368361;28;98276;-66
2022/08/06 16:46:25;;;;;;;2.33;1.88;;;;;;;33.88;31.21;96245.88;10370849;28;97893;-65
2022/08/06 16:51:30;;;;;;;2.45;1.77;;;;;;;34.27;30.75;96243.88;10370555;28;97579;-65
2022/08/06 16:56:53;;;;;;;3.00;2.10;;;;;;;34.70;30.39;96235.47;10361977;28;97157;-66
2022/08/06 17:07:24;;;;;;;2.47;1.77;;;;;;;34.72;30.12;96252.22;10369452;28;97751;-66
2022/08/06 17:12:45;;;;;;;4.00;1.90;;;;;;;34.70;30.07;96259.88;10367427;28;98757;-67
2022/08/06 17:17:59;;;;;;;3.60;2.15;;;;;;;33.89;31.13;96254.81;10359724;28;97709;-66
2022/08/06 17:23:03;;;;;;;4.03;3.45;;;;;;;32.48;33.21;96270.47;10370526;28;97335;-69
2022/08/06 17:28:06;;;;;;;3.03;1.90;;;;;;;31.86;34.04;96277.53;10358120;28;98429;-65
2022/08/06 17:33:12;;;;;;;3.83;2.90;;;;;;;31.39;34.50;96269.00;10365121;28;99320;-66
2022/08/06 17:38:16;;;;;;;3.47;2.13;;;;;;;30.20;36.06;96273.19;10366184;28;98958;-64
2022/08/06 17:43:20;;;;;;;2.42;1.90;;;;;;;29.53;36.86;96267.81;10364830;28;97158;-64
2022/08/06 17:48:43;;;;;;;2.40;1.95;;;;;;;28.45;38.60;96280.06;10368930;28;98529;-65
2022/08/06 17:53:48;;;;;;;3.80;2.22;;;;;;;27.62;40.08;96281.38;10380332;28;96802;-67
2022/08/06 17:58:56;;;;;;;3.33;3.03;;;;;;;26.80;41.30;96288.50;10379970;28;98081;-63
2022/08/06 18:04:20;;;;;;;4.03;3.03;;;;;;;26.41;41.86;96294.69;10371543;28;97279;-64
2022/08/06 18:09:39;;;;;;;2.22;2.03;;;;;;;25.69;43.49;96300.81;10370500;28;97111;-66
2022/08/06 18:15:03;;;;;;;2.75;2.25;;;;;;;25.29;44.33;96307.06;10372301;28;96746;-66
2022/08/06 18:20:09;;;;;;;2.63;2.40;;;;;;;24.82;45.25;96303.50;10373429;28;96873;-66
2022/08/06 18:25:15;;;;;;;3.45;2.17;;;;;;;24.45;46.06;96316.28;10377099;28;99360;-67
2022/08/06 18:30:21;;;;;;;2.50;2.30;;;;;;;24.15;46.62;96324.44;10369744;28;98214;-67
2022/08/06 18:35:45;;;;;;;2.55;1.92;;;;;;;24.01;46.47;96335.28;10372924;28;98089;-67
2022/08/06 18:41:01;;;;;;;2.40;2.20;;;;;;;23.66;47.23;96322.72;10368366;28;98407;-66
2022/08/06 18:46:18;;;;;;;2.78;2.38;;;;;;;23.55;47.90;96331.47;10366242;28;97680;-68
2022/08/06 18:51:40;;;;;;;3.05;2.30;;;;;;;23.22;48.54;96337.25;10369108;28;99214;-66
2022/08/06 18:56:45;;;;;;;4.05;2.35;;;;;;;22.85;49.60;96342.63;10366628;28;98366;-64
2022/08/06 19:01:51;;;;;;;3.95;2.95;;;;;;;22.60;50.00;96347.00;10372483;28;96888;-63
2022/08/06 19:06:54;;;;;;;3.83;2.40;;;;;;;22.48;50.28;96358.59;10367065;28;98484;-64
2022/08/06 19:11:59;;;;;;;2.65;2.33;;;;;;;22.40;50.51;96357.81;10372256;28;97962;-62
2022/08/06 19:17:02;;;;;;;3.85;2.45;;;;;;;22.18;51.19;96369.88;10361613;28;98261;-63
2022/08/06 19:22:07;;;;;;;3.22;2.20;;;;;;;21.96;51.71;96361.47;10374606;28;96834;-62
2022/08/06 19:27:12;;;;;;;3.53;2.30;;;;;;;21.94;51.70;96379.50;10373483;28;96835;-61
2022/08/06 19:32:16;;;;;;;5.07;4.57;;;;;;;21.85;52.08;96384.28;10380843;28;97202;-61
2022/08/06 19:37:31;;;;;;;2.40;2.15;;;;;;;21.73;52.47;96384.13;10371444;28;98039;-61
2022/08/06 19:42:55;;;;;;;3.97;2.50;;;;;;;21.61;52.15;96396.47;10371200;28;96797;-62
2022/08/06 19:48:18;;;;;;;3.30;2.60;;;;;;;21.34;53.25;96401.91;10364686;28;98551;-64
2022/08/06 19:53:31;;;;;;;2.38;2.17;;;;;;;21.49;52.73;96399.78;10372644;28;97703;-61
2022/08/06 19:58:36;;;;;;;2.70;2.50;;;;;;;21.35;53.22;96402.72;10373083;28;97060;-62
2022/08/06 20:03:40;;;;;;;3.72;2.55;;;;;;;21.17;53.13;96417.50;10372560;28;96873;-63
2022/08/06 20:08:44;;;;;;;3.10;2.80;;;;;;;21.03;53.94;96415.91;10372098;28;96890;-62
2022/08/06 20:13:51;;;;;;;3.33;2.58;;;;;;;20.81;54.29;96426.81;10373287;28;97168;-61
2022/08/06 20:18:54;;;;;;;3.30;2.80;;;;;;;20.90;53.65;96424.75;10372101;28;96754;-61
2022/08/06 20:23:57;;;;;;;4.07;2.75;;;;;;;20.83;54.28;96426.59;10372174;28;97730;-61
2022/08/06 20:29:03;;;;;;;4.53;2.97;;;;;;;20.76;54.06;96437.25;10371223;28;97146;-62
2022/08/06 20:34:23;;;;;;;3.65;3.10;;;;;;;20.63;54.80;96432.72;10371763;28;96744;-62
2022/08/06 20:39:31;;;;;;;4.10;3.70;;;;;;;20.60;54.85;96440.28;10384756;28;97066;-62
2022/08/06 20:44:36;;;;;;;3.53;2.97;;;;;;;20.54;55.32;96445.38;10354408;28;98979;-62
2022/08/06 20:49:43;;;;;;;3.35;2.80;;;;;;;20.56;55.07;96442.53;10363762;28;97169;-63
2022/08/06 20:55:06;;;;;;;;;;;;;;;20.58;54.98;96437.81;10363295;28;98909;-63
2022/08/06 21:00:14;;;;;;;3.95;2.80;;;;;;;20.45;55.33;96428.06;10372305;28;98677;-62
2022/08/06 21:05:22;;;;;;;2.90;2.50;;;;;;;20.51;55.26;96442.31;10368669;28;98359;-67
2022/08/06 21:10:30;;;;;;;3.45;2.60;;;;;;;20.45;55.53;96440.50;10364424;28;97780;-64
2022/08/06 21:15:37;;;;;;;3.03;2.70;;;;;;;20.37;55.17;96434.41;10367491;28;97081;-62
2022/08/06 21:21:00;;;;;;;2.85;2.55;;;;;;;20.38;55.26;96436.00;10367678;28;96794;-62
2022/08/06 21:26:05;;;;;;;2.83;2.50;;;;;;;20.34;55.95;96424.19;10368384;28;97821;-61
2022/08/06 21:31:10;;;;;;;2.72;2.50;;;;;;;20.17;56.07;96426.41;10367243;28;98784;-67
2022/08/06 21:36:13;;;;;;;5.25;3.30;;;;;;;20.05;56.63;96416.63;10372582;28;97554;-62
2022/08/06 21:41:30;;;;;;;4.03;2.80;;;;;;;20.06;56.85;96418.25;10370168;28;96889;-62
2022/08/06 21:46:55;;;;;;;5.15;3.90;;;;;;;19.96;56.92;96411.53;10376227;28;99016;-63
2022/08/06 21:52:01;;;;;;;3.10;2.80;;;;;;;19.90;57.69;96416.81;10384928;28;96924;-63
2022/08/06 21:57:05;;;;;;;4.80;3.10;;;;;;;19.83;57.30;96411.50;10380796;28;96877;-62
2022/08/06 22:02:20;;;;;;;4.03;3.35;;;;;;;19.77;57.98;96413.09;10377563;28;96718;-62
2022/08/06 22:07:29;;;;;;;3.67;3.20;;;;;;;19.78;57.44;96416.56;10370919;28;97199;-62
2022/08/06 22:12:52;;;;;;;5.03;3.70;;;;;;;19.82;57.68;96407.22;10383372;28;99291;-62
2022/08/06 22:18:19;;;;;;;5.63;3.30;;;;;;;19.80;58.56;96395.94;10365459;28;96768;-63
2022/08/06 22:23:30;;;;;;;4.72;3.13;;;;;;;19.79;57.98;96395.16;10368328;28;98646;-61
2022/08/06 22:28:35;;;;;;;4.68;3.50;;;;;;;19.82;58.25;96388.66;10375105;28;96857;-61
2022/08/06 22:33:44;;;;;;;4.00;3.20;;;;;;;19.76;58.13;96384.13;10373220;28;97026;-61
2022/08/06 22:39:00;;;;;;;3.78;2.72;;;;;;;19.80;58.48;96386.19;10372400;28;97960;-62
2022/08/06 22:44:04;;;;;;;3.30;3.00;;;;;;;19.79;58.46;96389.03;10366800;28;96849;-61
2022/08/06 22:49:08;;;;;;;3.53;3.17;;;;;;;19.82;58.54;96383.38;10361577;28;96849;-61
2022/08/06 22:54:14;;;;;;;4.55;3.28;;;;;;;19.80;58.30;96374.75;10363685;28;96993;-63
2022/08/06 22:59:32;;;;;;;4.40;4.00;;;;;;;19.98;57.65;96379.50;10369893;28;98788;-66
2022/08/06 23:04:56;;;;;;;3.80;3.40;;;;;;;20.03;57.69;96392.16;10365464;28;97566;-64
2022/08/06 23:09:59;;;;;;;3.60;3.00;;;;;;;20.11;57.98;96392.78;10368913;28;97768;-64
2022/08/06 23:15:03;;;;;;;4.38;3.00;;;;;;;20.18;57.36;96398.06;10368915;28;97748;-68
2022/08/06 23:20:28;;;;;;;5.90;3.72;;;;;;;20.21;57.58;96402.97;10359102;28;97065;-65
2022/08/06 23:25:34;;;;;;;4.40;3.15;;;;;;;20.18;57.63;96403.34;10366612;28;98771;-64
2022/08/06 23:30:57;;;;;;;3.63;3.22;;;;;;;20.17;58.07;96402.56;10368223;28;96796;-64
2022/08/06 23:36:03;;;;;;;3.83;3.43;;;;;;;20.17;57.77;96394.59;10367143;28;97133;-64
2022/08/06 23:41:06;;;;;;;3.80;3.40;;;;;;;20.15;57.98;96393.19;10361900;28;97806;-64
2022/08/06 23:46:21;;;;;;;4.50;3.85;;;;;;;20.05;58.14;96382.16;10366958;28;97066;-64
2022/08/06 23:51:31;;;;;;;5.78;3.55;;;;;;;20.10;58.72;96377.06;10374167;28;98688;-64
2022/08/06 23:56:54;;;;;;;4.30;3.90;;;;;;;20.18;58.25;96375.00;10369301;28;98443;-64
